createdAt,value
2018-07-07T00:02:52.031Z,20.30
2018-07-07T00:05:20.887Z,20.30
2018-07-07T00:10:18.431Z,20.30
2018-07-07T00:12:47.292Z,20.30
2018-07-07T00:15:18.875Z,20.30
2018-07-07T00:17:48.334Z,20.30
2018-07-07T00:20:17.652Z,20.40
2018-07-07T00:22:47.028Z,20.40
2018-07-07T00:25:17.298Z,20.40
2018-07-07T00:27:46.769Z,20.40
2018-07-07T00:30:16.266Z,20.40
2018-07-07T00:32:45.155Z,20.40
2018-07-07T00:35:14.065Z,20.40
2018-07-07T00:37:42.930Z,20.40
2018-07-07T00:40:12.052Z,20.40
2018-07-07T00:42:40.939Z,20.40
2018-07-07T00:45:09.816Z,20.30
2018-07-07T00:47:38.740Z,20.30
2018-07-07T00:50:07.914Z,20.30
2018-07-07T00:52:36.791Z,20.30
2018-07-07T00:55:05.727Z,20.30
2018-07-07T00:57:34.603Z,20.30
2018-07-07T01:00:03.540Z,20.30
2018-07-07T01:02:32.594Z,20.30
2018-07-07T01:05:01.438Z,20.30
2018-07-07T01:07:30.251Z,20.30
2018-07-07T01:09:59.115Z,20.30
2018-07-07T01:12:27.982Z,20.30
2018-07-07T01:14:56.848Z,20.30
2018-07-07T01:17:25.739Z,20.30
2018-07-07T01:19:54.624Z,20.20
2018-07-07T01:22:23.467Z,20.20
2018-07-07T01:24:52.310Z,20.20
2018-07-07T01:27:21.184Z,20.20
2018-07-07T01:29:50.003Z,20.30
2018-07-07T01:32:18.827Z,20.30
2018-07-07T01:34:47.678Z,20.20
2018-07-07T01:37:16.485Z,20.20
2018-07-07T01:39:45.346Z,20.20
2018-07-07T01:42:14.172Z,20.20
2018-07-07T01:44:43.024Z,20.20
2018-07-07T01:47:11.872Z,20.20
2018-07-07T01:49:40.726Z,20.20
2018-07-07T01:54:38.310Z,20.20
2018-07-07T01:57:07.155Z,20.20
2018-07-07T01:59:36.016Z,20.20
2018-07-07T02:02:04.913Z,20.20
2018-07-07T02:04:33.781Z,20.20
2018-07-07T02:07:02.629Z,20.20
2018-07-07T02:09:31.502Z,20.10
2018-07-07T02:12:00.306Z,20.10
2018-07-07T02:14:29.151Z,20.10
2018-07-07T02:16:58.007Z,20.20
2018-07-07T02:19:26.822Z,20.10
2018-07-07T02:21:55.686Z,20.10
2018-07-07T02:24:24.515Z,20.20
2018-07-07T02:26:53.519Z,20.20
2018-07-07T02:29:22.338Z,20.10
2018-07-07T02:31:51.172Z,20.10
2018-07-07T02:34:20.056Z,20.10
2018-07-07T02:36:48.919Z,20.10
2018-07-07T02:39:17.747Z,20.00
2018-07-07T02:41:46.610Z,20.10
2018-07-07T02:44:15.780Z,20.10
2018-07-07T02:46:44.624Z,20.10
2018-07-07T02:49:13.463Z,20.10
2018-07-07T02:51:42.319Z,20.00
2018-07-07T02:54:11.180Z,20.10
2018-07-07T02:56:40.024Z,20.10
2018-07-07T02:59:08.870Z,20.10
2018-07-07T03:01:37.707Z,20.10
2018-07-07T03:04:06.649Z,20.00
2018-07-07T03:06:35.503Z,20.00
2018-07-07T03:09:04.584Z,20.00
2018-07-07T03:11:33.426Z,20.00
2018-07-07T03:14:02.287Z,20.00
2018-07-07T03:18:59.913Z,20.00
2018-07-07T03:21:28.738Z,20.00
2018-07-07T03:23:57.577Z,20.00
2018-07-07T03:26:26.512Z,20.10
2018-07-07T03:28:55.318Z,20.00
2018-07-07T03:33:52.960Z,20.00
2018-07-07T03:36:21.848Z,20.00
2018-07-07T03:38:50.714Z,20.00
2018-07-07T03:41:19.543Z,20.00
2018-07-07T03:43:48.423Z,20.00
2018-07-07T03:46:17.394Z,20.00
2018-07-07T03:48:46.276Z,20.00
2018-07-07T03:51:15.135Z,20.00
2018-07-07T03:53:43.992Z,20.00
2018-07-07T03:56:12.887Z,19.90
2018-07-07T03:58:41.700Z,19.90
2018-07-07T04:01:10.588Z,19.90
2018-07-07T04:06:08.271Z,19.90
2018-07-07T04:08:37.119Z,19.90
2018-07-07T04:11:06.239Z,19.90
2018-07-07T04:13:35.142Z,19.90
2018-07-07T04:16:04.384Z,19.80
2018-07-07T04:18:34.212Z,19.90
2018-07-07T04:21:04.237Z,19.80
2018-07-07T04:23:33.726Z,19.80
2018-07-07T04:26:02.996Z,19.80
2018-07-07T04:28:31.862Z,19.70
2018-07-07T04:31:00.752Z,19.70
2018-07-07T04:33:29.603Z,19.70
2018-07-07T04:35:58.439Z,19.80
2018-07-07T04:38:27.267Z,19.80
2018-07-07T04:40:56.231Z,19.80
2018-07-07T04:45:54.593Z,19.90
2018-07-07T04:48:23.519Z,19.90
2018-07-07T04:50:52.976Z,19.90
2018-07-07T04:53:21.995Z,19.90
2018-07-07T04:58:19.635Z,20.00
2018-07-07T05:00:48.463Z,20.00
2018-07-07T05:03:17.331Z,20.00
2018-07-07T05:05:46.198Z,20.00
2018-07-07T05:08:15.054Z,20.00
2018-07-07T05:13:12.691Z,20.10
2018-07-07T05:15:41.537Z,20.10
2018-07-07T05:18:10.415Z,20.20
2018-07-07T05:20:39.247Z,20.20
2018-07-07T05:23:08.113Z,20.20
2018-07-07T05:25:36.955Z,20.30
2018-07-07T05:30:34.587Z,20.40
2018-07-07T05:33:03.442Z,20.40
2018-07-07T05:38:01.036Z,20.50
2018-07-07T05:42:58.707Z,20.60
2018-07-07T05:47:56.351Z,20.60
2018-07-07T05:50:25.224Z,20.70
2018-07-07T05:52:54.059Z,20.70
2018-07-07T05:55:22.911Z,20.70
2018-07-07T05:57:51.750Z,20.80
2018-07-07T06:00:20.602Z,20.90
2018-07-07T06:02:49.492Z,20.90
2018-07-07T06:05:18.323Z,21.00
2018-07-07T06:07:46.630Z,21.00
2018-07-07T06:10:15.483Z,21.10
2018-07-07T06:12:44.331Z,21.10
2018-07-07T06:15:13.199Z,21.10
2018-07-07T06:17:42.075Z,21.10
2018-07-07T06:20:10.983Z,21.10
2018-07-07T06:22:39.872Z,21.10
2018-07-07T06:25:08.748Z,21.20
2018-07-07T06:27:37.590Z,21.20
2018-07-07T06:30:06.843Z,21.20
2018-07-07T06:35:04.414Z,21.30
2018-07-07T06:40:02.276Z,21.30
2018-07-07T06:42:31.145Z,21.40
2018-07-07T06:45:00.143Z,21.40
2018-07-07T06:47:29.003Z,21.50
2018-07-07T06:49:57.854Z,21.50
2018-07-07T06:52:26.748Z,21.50
2018-07-07T06:54:55.619Z,21.60
2018-07-07T06:57:24.479Z,21.70
2018-07-07T06:59:53.352Z,21.70
2018-07-07T07:02:22.208Z,21.70
2018-07-07T07:04:51.164Z,21.80
2018-07-07T07:07:19.987Z,21.80
2018-07-07T07:09:48.826Z,21.80
2018-07-07T07:12:17.696Z,21.90
2018-07-07T07:14:46.564Z,21.90
2018-07-07T07:17:15.418Z,21.90
2018-07-07T07:19:44.245Z,21.90
2018-07-07T07:22:13.092Z,21.90
2018-07-07T07:24:41.950Z,22.00
2018-07-07T07:27:10.882Z,22.00
2018-07-07T07:29:40.340Z,22.00
2018-07-07T07:32:09.170Z,22.10
2018-07-07T07:34:38.023Z,22.10
2018-07-07T07:37:06.929Z,22.20
2018-07-07T07:39:35.758Z,22.20
2018-07-07T07:42:04.631Z,22.30
2018-07-07T07:44:33.991Z,22.30
2018-07-07T07:49:31.778Z,22.40
2018-07-07T07:52:00.632Z,22.50
2018-07-07T07:54:29.499Z,22.50
2018-07-07T07:59:27.076Z,22.60
2018-07-07T08:04:24.655Z,22.70
2018-07-07T08:09:22.215Z,22.80
2018-07-07T08:11:51.068Z,22.70
2018-07-07T08:14:19.896Z,22.70
2018-07-07T08:16:48.716Z,22.70
2018-07-07T08:19:17.542Z,22.70
2018-07-07T08:21:46.360Z,22.80
2018-07-07T08:24:15.191Z,22.90
2018-07-07T08:26:44.053Z,22.90
2018-07-07T08:29:12.915Z,23.00
2018-07-07T08:31:41.779Z,23.00
2018-07-07T08:34:10.607Z,23.00
2018-07-07T08:36:39.478Z,23.00
2018-07-07T08:39:08.383Z,23.00
2018-07-07T08:41:37.198Z,23.00
2018-07-07T08:44:06.015Z,23.10
2018-07-07T08:46:34.904Z,23.10
2018-07-07T08:49:03.746Z,23.20
2018-07-07T08:51:32.600Z,23.20
2018-07-07T08:54:01.452Z,23.20
2018-07-07T08:56:30.411Z,23.20
2018-07-07T08:58:59.251Z,23.20
2018-07-07T09:01:28.078Z,23.30
2018-07-07T09:03:56.939Z,23.30
2018-07-07T09:06:25.839Z,23.40
2018-07-07T09:08:54.699Z,23.50
2018-07-07T09:11:23.524Z,23.50
2018-07-07T09:13:52.391Z,23.60
2018-07-07T09:16:21.511Z,23.60
2018-07-07T09:18:50.397Z,23.60
2018-07-07T09:21:19.339Z,23.60
2018-07-07T09:23:48.107Z,23.70
2018-07-07T09:26:16.959Z,23.70
2018-07-07T09:28:45.825Z,23.80
2018-07-07T09:31:14.666Z,23.90
2018-07-07T09:33:43.759Z,23.90
2018-07-07T09:36:12.623Z,23.90
2018-07-07T09:38:41.596Z,24.00
2018-07-07T09:41:10.420Z,24.00
2018-07-07T09:43:39.318Z,24.00
2018-07-07T09:46:08.211Z,24.10
2018-07-07T09:48:37.039Z,24.20
2018-07-07T09:51:06.086Z,24.20
2018-07-07T09:53:34.965Z,24.20
2018-07-07T09:56:04.043Z,24.20
2018-07-07T09:58:32.859Z,24.30
2018-07-07T10:01:01.772Z,24.40
2018-07-07T10:03:30.636Z,24.50
2018-07-07T10:05:59.499Z,24.40
2018-07-07T10:08:28.336Z,24.50
2018-07-07T10:10:57.168Z,24.60
2018-07-07T10:13:26.043Z,24.50
2018-07-07T10:15:54.868Z,24.60
2018-07-07T10:18:23.736Z,24.60
2018-07-07T10:20:52.584Z,24.60
2018-07-07T10:23:21.423Z,24.60
2018-07-07T10:25:50.363Z,24.60
2018-07-07T10:28:19.339Z,24.60
2018-07-07T10:30:48.167Z,24.70
2018-07-07T10:33:16.991Z,24.80
2018-07-07T10:35:45.831Z,24.80
2018-07-07T10:38:14.724Z,24.80
2018-07-07T10:40:43.523Z,24.90
2018-07-07T10:43:12.343Z,24.90
2018-07-07T10:45:41.343Z,25.00
2018-07-07T10:48:10.052Z,25.00
2018-07-07T10:50:38.900Z,24.90
2018-07-07T10:55:36.581Z,25.10
2018-07-07T10:58:05.480Z,25.20
2018-07-07T11:00:34.338Z,25.30
2018-07-07T11:03:03.198Z,25.40
2018-07-07T11:05:32.023Z,25.40
2018-07-07T11:08:00.869Z,25.50
2018-07-07T11:10:29.694Z,25.50
2018-07-07T11:12:58.547Z,25.60
2018-07-07T11:15:27.392Z,25.60
2018-07-07T11:17:56.240Z,25.60
2018-07-07T11:20:25.043Z,25.60
2018-07-07T11:22:53.992Z,25.60
2018-07-07T11:25:22.859Z,25.60
2018-07-07T11:27:51.699Z,25.60
2018-07-07T11:30:20.576Z,25.70
2018-07-07T11:32:49.384Z,25.80
2018-07-07T11:35:18.257Z,25.80
2018-07-07T11:37:47.630Z,25.80
2018-07-07T11:40:16.511Z,25.90
2018-07-07T11:42:45.403Z,25.90
2018-07-07T11:45:14.228Z,26.00
2018-07-07T11:47:43.138Z,26.10
2018-07-07T11:50:12.036Z,26.10
2018-07-07T11:52:40.842Z,26.20
2018-07-07T11:55:09.731Z,26.20
2018-07-07T11:57:38.572Z,26.30
2018-07-07T12:00:07.436Z,26.30
2018-07-07T12:02:36.251Z,26.40
2018-07-07T12:05:05.240Z,26.50
2018-07-07T12:07:34.071Z,26.60
2018-07-07T12:10:02.943Z,26.80
2018-07-07T12:12:31.796Z,27.00
2018-07-07T12:15:00.763Z,27.00
2018-07-07T12:17:29.672Z,27.10
2018-07-07T12:19:58.477Z,27.20
2018-07-07T12:22:27.297Z,27.20
2018-07-07T12:24:56.467Z,27.40
2018-07-07T12:27:25.347Z,27.50
2018-07-07T12:29:54.491Z,27.50
2018-07-07T12:32:23.343Z,27.60
2018-07-07T12:34:52.203Z,27.60
2018-07-07T12:37:21.119Z,27.70
2018-07-07T12:39:49.966Z,27.80
2018-07-07T12:42:19.125Z,27.90
2018-07-07T12:44:48.043Z,28.10
2018-07-07T12:47:16.872Z,28.10
2018-07-07T12:49:45.731Z,28.40
2018-07-07T12:52:14.572Z,28.60
2018-07-07T12:54:43.392Z,28.60
2018-07-07T12:57:12.242Z,28.80
2018-07-07T12:59:41.043Z,28.90
2018-07-07T13:02:09.899Z,29.00
2018-07-07T13:07:07.578Z,29.30
2018-07-07T13:09:36.341Z,29.40
2018-07-07T13:14:34.278Z,29.80
2018-07-07T13:17:03.102Z,30.00
2018-07-07T13:19:32.000Z,30.10
2018-07-07T13:22:00.873Z,30.30
2018-07-07T13:24:29.752Z,30.40
2018-07-07T13:26:58.621Z,30.60
2018-07-07T13:29:27.468Z,30.70
2018-07-07T13:31:56.314Z,30.80
2018-07-07T13:34:25.218Z,31.00
2018-07-07T13:36:54.099Z,31.10
2018-07-07T13:39:23.004Z,31.20
2018-07-07T13:41:51.828Z,31.30
2018-07-07T13:44:20.724Z,31.40
2018-07-07T13:49:18.340Z,31.60
2018-07-07T13:51:47.263Z,31.60
2018-07-07T13:54:16.119Z,31.70
2018-07-07T13:56:45.087Z,31.80
2018-07-07T13:59:13.966Z,31.80
2018-07-07T14:01:42.849Z,31.90
2018-07-07T14:04:11.695Z,31.90
2018-07-07T14:06:40.543Z,32.10
2018-07-07T14:11:38.976Z,32.20
2018-07-07T14:14:07.817Z,32.20
2018-07-07T14:19:05.520Z,32.60
2018-07-07T14:24:03.414Z,32.70
2018-07-07T14:26:32.274Z,32.70
2018-07-07T14:31:29.894Z,32.80
2018-07-07T14:33:58.707Z,32.80
2018-07-07T14:36:27.580Z,32.70
2018-07-07T14:38:56.412Z,32.60
2018-07-07T14:43:59.391Z,32.20
2018-07-07T14:46:28.655Z,32.10
2018-07-07T14:48:57.585Z,31.90
2018-07-07T14:51:26.475Z,31.60
2018-07-07T14:53:55.402Z,31.50
2018-07-07T14:58:53.726Z,31.20
2018-07-07T15:01:22.600Z,31.30
2018-07-07T15:03:51.442Z,31.20
2018-07-07T15:06:20.260Z,31.00
2018-07-07T15:08:49.084Z,30.90
2018-07-07T15:11:17.962Z,30.70
2018-07-07T15:13:47.172Z,30.40
2018-07-07T15:16:16.078Z,30.10
2018-07-07T15:18:45.048Z,29.90
2018-07-07T15:21:13.913Z,29.80
2018-07-07T15:23:42.935Z,29.70
2018-07-07T15:26:11.784Z,29.80
2018-07-07T15:28:40.591Z,30.00
2018-07-07T15:31:10.282Z,30.30
2018-07-07T15:36:07.872Z,30.50
2018-07-07T15:38:36.740Z,30.40
2018-07-07T15:41:05.676Z,30.40
2018-07-07T15:43:34.504Z,30.30
2018-07-07T15:46:03.499Z,29.90
2018-07-07T15:51:01.032Z,30.00
2018-07-07T15:53:29.913Z,30.00
2018-07-07T15:58:27.495Z,29.90
2018-07-07T16:00:56.340Z,29.90
2018-07-07T16:03:25.199Z,29.90
2018-07-07T16:05:54.127Z,29.80
2018-07-07T16:08:22.988Z,29.70
2018-07-07T16:10:51.835Z,29.60
2018-07-07T16:13:20.696Z,29.40
2018-07-07T16:15:49.574Z,29.40
2018-07-07T16:18:18.443Z,29.50
2018-07-07T16:20:47.295Z,29.40
2018-07-07T16:23:16.131Z,29.30
2018-07-07T16:25:44.973Z,29.20
2018-07-07T16:28:13.827Z,29.20
2018-07-07T16:30:42.668Z,29.20
2018-07-07T16:33:11.478Z,29.10
2018-07-07T16:35:40.340Z,29.00
2018-07-07T16:38:09.230Z,28.90
2018-07-07T16:40:38.267Z,28.80
2018-07-07T16:43:07.252Z,28.60
2018-07-07T16:45:36.435Z,28.50
2018-07-07T16:48:05.835Z,28.40
2018-07-07T16:50:34.851Z,28.40
2018-07-07T16:53:03.831Z,28.30
2018-07-07T16:55:32.816Z,28.20
2018-07-07T16:58:01.811Z,28.10
2018-07-07T17:02:59.539Z,28.00
2018-07-07T17:07:57.304Z,27.80
2018-07-07T17:10:26.284Z,27.60
2018-07-07T17:12:55.207Z,27.60
2018-07-07T17:15:24.476Z,27.60
2018-07-07T17:17:53.395Z,27.40
2018-07-07T17:20:22.257Z,27.40
2018-07-07T17:22:51.216Z,27.30
2018-07-07T17:27:48.939Z,27.10
2018-07-07T17:30:19.975Z,27.00
2018-07-07T17:32:49.615Z,27.00
2018-07-07T17:35:18.862Z,26.90
2018-07-07T17:37:48.084Z,26.80
2018-07-07T17:40:17.335Z,26.60
2018-07-07T17:42:46.671Z,26.60
2018-07-07T17:45:16.280Z,26.50
2018-07-07T17:47:45.548Z,26.40
2018-07-07T17:50:15.415Z,26.40
2018-07-07T17:52:44.487Z,26.20
2018-07-07T17:55:13.407Z,26.20
2018-07-07T17:57:43.052Z,26.10
2018-07-07T18:00:12.093Z,26.00
2018-07-07T18:02:41.046Z,25.90
2018-07-07T18:05:09.947Z,25.90
2018-07-07T18:07:38.756Z,25.80
2018-07-07T18:10:07.639Z,25.70
2018-07-07T18:12:37.462Z,25.60
2018-07-07T18:15:06.749Z,25.50
2018-07-07T18:17:35.675Z,25.50
2018-07-07T18:20:04.507Z,25.40
2018-07-07T18:22:33.370Z,25.20
2018-07-07T18:27:31.589Z,25.10
2018-07-07T18:30:00.462Z,25.10
2018-07-07T18:32:29.357Z,25.00
2018-07-07T18:37:26.992Z,25.00
2018-07-07T18:39:55.809Z,24.90
2018-07-07T18:42:24.685Z,24.80
2018-07-07T18:44:53.547Z,24.80
2018-07-07T18:47:22.420Z,24.70
2018-07-07T18:49:51.331Z,24.60
2018-07-07T18:52:20.166Z,24.50
2018-07-07T18:54:49.040Z,24.40
2018-07-07T18:57:17.881Z,24.30
2018-07-07T18:59:46.768Z,24.30
2018-07-07T19:04:44.295Z,24.20
2018-07-07T19:07:13.167Z,24.10
2018-07-07T19:12:10.764Z,24.00
2018-07-07T19:17:08.404Z,23.80
2018-07-07T19:19:37.271Z,23.80
2018-07-07T19:22:12.703Z,23.70
2018-07-07T19:24:48.223Z,23.70
2018-07-07T19:27:17.105Z,23.70
2018-07-07T19:29:45.955Z,23.60
2018-07-07T19:32:20.353Z,23.50
2018-07-07T19:39:52.247Z,23.50
2018-07-07T19:42:21.162Z,23.40
2018-07-07T19:44:50.070Z,23.30
2018-07-07T19:47:18.944Z,23.30
2018-07-07T19:49:47.821Z,23.30
2018-07-07T19:52:16.689Z,23.20
2018-07-07T19:54:45.741Z,23.10
2018-07-07T19:59:44.167Z,23.00
2018-07-07T20:02:13.064Z,23.00
2018-07-07T20:04:41.979Z,22.90
2018-07-07T20:07:10.885Z,22.90
2018-07-07T20:09:39.777Z,22.90
2018-07-07T20:12:08.711Z,22.90
2018-07-07T20:14:37.620Z,22.80
2018-07-07T20:17:09.135Z,22.80
2018-07-07T20:21:04.680Z,22.70
2018-07-07T20:23:33.563Z,22.70
2018-07-07T20:26:03.551Z,22.50
2018-07-07T20:28:38.468Z,22.50
2018-07-07T20:31:07.330Z,22.30
2018-07-07T20:33:36.190Z,22.30
2018-07-07T20:36:05.070Z,22.30
2018-07-07T20:38:34.905Z,22.30
2018-07-07T20:46:01.288Z,22.10
2018-07-07T20:48:30.180Z,22.00
2018-07-07T20:50:59.064Z,22.00
2018-07-07T20:53:27.923Z,22.00
2018-07-07T20:55:56.843Z,21.80
2018-07-07T20:58:25.658Z,21.80
2018-07-07T21:00:54.527Z,21.80
2018-07-07T21:03:23.343Z,21.70
2018-07-07T21:05:52.172Z,21.70
2018-07-07T21:08:21.240Z,21.70
2018-07-07T21:10:50.109Z,21.60
2018-07-07T21:13:18.984Z,21.50
2018-07-07T21:15:47.875Z,21.50
2018-07-07T21:18:16.760Z,21.50
2018-07-07T21:20:45.579Z,21.40
2018-07-07T21:23:14.480Z,21.40
2018-07-07T21:25:43.355Z,21.40
2018-07-07T21:28:12.175Z,21.40
2018-07-07T21:30:41.040Z,21.30
2018-07-07T21:33:09.935Z,21.30
2018-07-07T21:35:38.825Z,21.30
2018-07-07T21:38:07.702Z,21.20
2018-07-07T21:40:36.543Z,21.20
2018-07-07T21:43:05.589Z,21.10
2018-07-07T21:45:34.490Z,21.00
2018-07-07T21:48:03.374Z,20.90
2018-07-07T21:50:32.329Z,20.90
2018-07-07T21:55:29.977Z,20.90
2018-07-07T21:58:04.438Z,20.90
2018-07-07T22:00:39.858Z,20.80
2018-07-07T22:03:14.280Z,20.70
2018-07-07T22:05:48.264Z,20.70
2018-07-07T22:08:20.029Z,20.70
2018-07-07T22:10:49.087Z,20.60
2018-07-07T22:13:17.935Z,20.50
2018-07-07T22:15:46.805Z,20.40
2018-07-07T22:18:15.704Z,20.40
2018-07-07T22:21:00.270Z,20.40
2018-07-07T22:23:29.126Z,20.40
2018-07-07T22:25:58.044Z,20.30
2018-07-07T22:28:26.883Z,20.30
2018-07-07T22:30:55.779Z,20.20
2018-07-07T22:33:25.708Z,20.30
2018-07-07T22:36:00.371Z,20.20
2018-07-07T22:38:34.855Z,20.20
2018-07-07T22:41:03.813Z,20.10
2018-07-07T22:43:32.663Z,20.10
2018-07-07T22:47:04.795Z,20.10
2018-07-07T22:49:33.677Z,20.00
2018-07-07T22:52:02.650Z,20.00
2018-07-07T22:57:00.243Z,19.90
2018-07-07T22:59:29.367Z,19.90
2018-07-07T23:01:58.212Z,19.70
2018-07-07T23:06:55.894Z,19.70
2018-07-07T23:09:24.837Z,19.70
2018-07-07T23:11:53.739Z,19.70
2018-07-07T23:14:22.624Z,19.60
2018-07-07T23:16:51.514Z,19.60
2018-07-07T23:19:20.371Z,19.50
2018-07-07T23:21:49.207Z,19.50
2018-07-07T23:24:18.072Z,19.50
2018-07-07T23:26:46.872Z,19.40
2018-07-07T23:29:15.730Z,19.40
2018-07-07T23:31:44.607Z,19.40
2018-07-07T23:34:13.607Z,19.30
2018-07-07T23:39:11.255Z,19.20
2018-07-07T23:44:08.895Z,19.10
2018-07-07T23:46:37.747Z,19.00
2018-07-07T23:51:35.339Z,19.10
2018-07-07T23:54:04.319Z,19.00
2018-07-07T23:56:33.142Z,19.00
2018-07-07T23:59:02.018Z,18.90
